Lower Oswegatchie, New York
Current Conditions -  °F | °C
As of 4:58 AM on Monday 20 Oct 2014 (Local Time) from KGTB Reporting Station
Broken Clouds Broken Clouds  
Wind Chill: 26°   Ceiling: 11000
Heat Index: 33°   Visibility: 10mi
Dew Point: 31°   Wind: 8mph
Humidity: 93%   Direction: 140°SE
Pressure: 29.97"   Gusts: NA
Location:  44.189°N, 75.0724°W
Report Text: KGTB 200858Z AUTO 14007KT 10SM BKN110 01/00 A2997 RMK AO2 SLP156 T00061004 57006
Loading
Personal Weather Stations






























Interactive Weather Map
Tropical Storm Tracking
New forecast layout! Learn more

10-Day Weather Forecast

Advertisements
Track Severe Weather on mobile